Time;durP1;ratioP1;P1;durP2;ratioP2;P2;SDS_P1;SDS_P2;PMS_P1;PMS_P2;Temp;Humidity;BMP_temperature;BMP_pressure;BME280_temperature;BME280_humidity;BME280_pressure;Samples;Min_cycle;Max_cycle;Signal;HPM_P1;HPM_P2
2021/03/17 00:03:41;;;;;;;26.10;15.88;;;;;;;1.84;100.00;93471.97;10488503;28;20267;-75
2021/03/17 00:08:41;;;;;;;30.45;16.85;;;;;;;1.85;100.00;93464.81;10488817;28;20032;-75
2021/03/17 00:13:42;;;;;;;33.50;18.53;;;;;;;1.86;100.00;93463.75;10488643;28;20082;-76
2021/03/17 00:18:43;;;;;;;29.08;18.25;;;;;;;2.00;100.00;93461.50;10488506;28;20407;-76
2021/03/17 00:23:43;;;;;;;25.27;14.70;;;;;;;2.04;100.00;93455.44;10487378;28;20061;-75
2021/03/17 00:28:43;;;;;;;33.60;16.87;;;;;;;2.07;100.00;93463.97;10487618;28;20032;-75
2021/03/17 00:33:44;;;;;;;30.57;17.20;;;;;;;1.81;100.00;93453.88;10487816;28;20095;-75
2021/03/17 00:38:44;;;;;;;28.03;17.43;;;;;;;1.95;100.00;93461.44;10487821;28;20028;-75
2021/03/17 00:43:44;;;;;;;29.58;17.00;;;;;;;2.01;100.00;93455.13;10488043;28;20270;-76
2021/03/17 00:48:45;;;;;;;32.33;16.97;;;;;;;1.65;100.00;93452.16;10486907;28;20032;-75
2021/03/17 00:53:45;;;;;;;29.20;16.52;;;;;;;1.74;100.00;93448.00;10487315;28;20122;-75
2021/03/17 00:58:45;;;;;;;29.63;16.17;;;;;;;1.66;100.00;93445.78;10485961;28;20486;-72
2021/03/17 01:03:46;;;;;;;23.63;14.63;;;;;;;1.72;100.00;93442.16;10485855;28;20472;-72
2021/03/17 01:08:46;;;;;;;21.42;13.40;;;;;;;1.71;100.00;93438.69;10486343;28;20032;-71
2021/03/17 01:13:47;;;;;;;22.35;12.82;;;;;;;1.92;100.00;93444.19;10486684;28;20074;-76
2021/03/17 01:18:47;;;;;;;26.33;12.60;;;;;;;1.87;100.00;93434.38;10487208;28;20028;-75
2021/03/17 01:23:47;;;;;;;22.98;12.95;;;;;;;1.99;100.00;93430.75;10486247;28;20270;-76
2021/03/17 01:28:48;;;;;;;23.70;12.17;;;;;;;1.98;100.00;93434.44;10487637;28;20383;-76
2021/03/17 01:33:48;;;;;;;18.60;11.27;;;;;;;1.95;100.00;93434.94;10487243;28;20067;-77
2021/03/17 01:38:48;;;;;;;17.07;10.27;;;;;;;1.78;100.00;93425.25;10486444;28;20028;-76
2021/03/17 01:43:49;;;;;;;18.03;11.40;;;;;;;1.78;100.00;93427.91;10487263;28;20107;-76
2021/03/17 01:48:49;;;;;;;21.80;12.23;;;;;;;1.67;100.00;93420.91;10486340;28;20035;-77
2021/03/17 01:53:50;;;;;;;19.73;12.13;;;;;;;1.71;100.00;93420.16;10485870;28;20393;-76
2021/03/17 01:58:51;;;;;;;22.23;12.25;;;;;;;1.65;100.00;93425.69;10485157;28;20031;-77
2021/03/17 02:03:51;;;;;;;23.20;12.80;;;;;;;1.79;100.00;93434.03;10486224;28;20016;-77
2021/03/17 02:08:52;;;;;;;17.43;10.53;;;;;;;1.88;100.00;93438.63;10485814;28;20039;-76
2021/03/17 02:14:06;;;;;;;20.33;12.03;;;;;;;1.87;100.00;93436.19;10492273;28;20020;-76
2021/03/17 02:19:12;;;;;;;16.35;9.40;;;;;;;1.87;100.00;93429.06;10493918;28;20029;-76
2021/03/17 02:24:28;;;;;;;20.40;11.75;;;;;;;1.99;100.00;93444.00;10493365;28;20035;-76
2021/03/17 02:30:07;;;;;;;15.20;9.10;;;;;;;1.76;100.00;93427.38;10493691;28;20765;-76
2021/03/17 02:35:08;;;;;;;;;;;;;;;1.78;100.00;93449.09;10491550;28;20486;-76
2021/03/17 02:40:16;;;;;;;18.98;11.18;;;;;;;1.75;100.00;93459.41;10490899;28;19908;-76
2021/03/17 02:45:28;;;;;;;17.73;10.23;;;;;;;1.94;100.00;93450.06;10490925;28;20031;-75
2021/03/17 02:50:31;;;;;;;18.27;9.80;;;;;;;2.01;100.00;93450.66;10491864;28;20045;-75
2021/03/17 02:55:34;;;;;;;29.95;9.80;;;;;;;1.75;100.00;93452.25;10492259;28;20391;-76
2021/03/17 03:00:34;;;;;;;17.63;10.93;;;;;;;1.80;100.00;93452.31;10492292;28;20031;-74
2021/03/17 03:05:35;;;;;;;15.20;8.93;;;;;;;1.61;100.00;93451.06;10490836;28;20475;-74
2021/03/17 03:10:38;;;;;;;21.10;11.18;;;;;;;1.68;100.00;93449.00;10491676;28;20028;-75
2021/03/17 03:15:39;;;;;;;19.33;10.75;;;;;;;1.77;100.00;93455.44;10490182;28;20035;-75
2021/03/17 03:20:41;;;;;;;15.68;9.45;;;;;;;1.65;100.00;93446.88;10490605;28;20039;-75
2021/03/17 03:25:42;;;;;;;20.10;10.68;;;;;;;1.68;100.00;93454.31;10490954;28;20024;-75
2021/03/17 03:30:46;;;;;;;15.65;10.57;;;;;;;1.65;100.00;93458.25;10489620;28;20028;-76
2021/03/17 03:35:48;;;;;;;18.98;10.27;;;;;;;1.68;100.00;93463.03;10489864;28;20036;-76
2021/03/17 03:40:49;;;;;;;20.13;11.88;;;;;;;1.61;100.00;93456.34;10490704;28;20380;-75
2021/03/17 03:45:49;;;;;;;15.57;8.93;;;;;;;1.63;100.00;93454.25;10489758;28;20024;-75
2021/03/17 03:50:51;;;;;;;18.50;9.80;;;;;;;1.70;100.00;93450.38;10486859;28;20520;-76
2021/03/17 03:55:54;;;;;;;19.13;11.23;;;;;;;1.73;100.00;93456.19;10488283;28;20036;-76
2021/03/17 04:01:09;;;;;;;17.55;10.48;;;;;;;1.56;100.00;93462.38;10487978;28;20502;-76
2021/03/17 04:06:11;;;;;;;15.35;9.60;;;;;;;1.73;100.00;93442.97;10492417;28;20104;-76
2021/03/17 04:11:14;;;;;;;19.98;11.05;;;;;;;1.65;100.00;93466.19;10489103;28;20028;-76
2021/03/17 04:16:16;;;;;;;15.43;9.98;;;;;;;1.65;100.00;93462.75;10489197;28;20036;-76
2021/03/17 04:21:19;;;;;;;17.52;10.98;;;;;;;1.45;100.00;93464.13;10488815;28;20032;-76
2021/03/17 04:26:21;;;;;;;19.00;11.23;;;;;;;1.66;100.00;93461.69;10488491;28;20013;-76
2021/03/17 04:31:23;;;;;;;19.73;11.45;;;;;;;1.80;100.00;93454.97;10486328;28;20035;-76
2021/03/17 04:36:25;;;;;;;20.05;12.63;;;;;;;1.61;100.00;93451.06;10487922;28;20031;-76
2021/03/17 04:41:26;;;;;;;18.55;11.60;;;;;;;1.76;100.00;93459.16;10487736;28;20068;-76
2021/03/17 04:46:27;;;;;;;19.17;11.98;;;;;;;1.72;100.00;93455.41;10487402;28;20020;-76
2021/03/17 04:51:27;;;;;;;17.30;10.35;;;;;;;1.76;100.00;93461.81;10484381;28;20132;-76
2021/03/17 04:56:29;;;;;;;17.40;12.10;;;;;;;1.64;100.00;93455.84;10486591;28;20039;-76
2021/03/17 05:01:32;;;;;;;23.50;12.82;;;;;;;1.36;100.00;93462.97;10485863;28;20055;-76
2021/03/17 05:06:35;;;;;;;23.23;13.73;;;;;;;1.63;100.00;93467.47;10487251;28;20052;-76
2021/03/17 05:11:37;;;;;;;20.60;13.30;;;;;;;1.43;100.00;93460.91;10484770;28;20028;-76
2021/03/17 05:16:39;;;;;;;22.50;12.20;;;;;;;1.47;100.00;93474.47;10486606;28;20067;-76
2021/03/17 05:21:40;;;;;;;20.25;12.75;;;;;;;1.63;100.00;93468.31;10483750;28;20047;-76
2021/03/17 05:26:41;;;;;;;18.85;12.20;;;;;;;1.67;100.00;93489.78;10444574;28;20511;-76
2021/03/17 05:31:42;;;;;;;22.50;13.70;;;;;;;1.92;100.00;93483.16;10484151;28;20436;-77
2021/03/17 05:36:42;;;;;;;25.77;13.15;;;;;;;2.01;100.00;93489.56;10473472;28;20029;-72
2021/03/17 05:41:43;;;;;;;20.23;12.50;;;;;;;2.08;100.00;93492.03;10442345;28;20036;-73
2021/03/17 05:46:44;;;;;;;20.10;11.17;;;;;;;2.19;100.00;93489.25;10445959;28;20467;-73
2021/03/17 05:51:45;;;;;;;25.30;13.57;;;;;;;2.37;100.00;93496.03;10451011;28;20382;-73
2021/03/17 05:56:46;;;;;;;18.10;10.38;;;;;;;2.31;100.00;93493.56;10449791;28;20423;-73
2021/03/17 06:01:46;;;;;;;21.73;11.95;;;;;;;2.47;100.00;93495.31;10448981;28;20021;-73
2021/03/17 06:06:50;;;;;;;19.92;11.10;;;;;;;2.27;100.00;93503.09;10449567;28;20024;-76
2021/03/17 06:11:51;;;;;;;18.48;11.95;;;;;;;2.26;100.00;93504.94;10449253;28;20025;-75
2021/03/17 06:16:59;;;;;;;18.48;10.70;;;;;;;2.11;100.00;93500.28;10450821;28;20582;-75
2021/03/17 06:21:59;;;;;;;19.27;11.35;;;;;;;2.24;100.00;93519.50;10450797;28;20029;-75
2021/03/17 06:27:02;;;;;;;21.40;11.60;;;;;;;2.20;100.00;93501.41;10457344;28;20024;-75
2021/03/17 06:32:03;;;;;;;21.27;10.85;;;;;;;1.82;100.00;93524.38;10492209;28;20086;-75
2021/03/17 06:37:04;;;;;;;26.35;13.55;;;;;;;2.12;100.00;93524.94;10491406;28;20120;-75
2021/03/17 06:42:05;;;;;;;22.17;11.85;;;;;;;2.00;100.00;93531.19;10491426;28;20044;-75
2021/03/17 06:47:15;;;;;;;19.67;10.25;;;;;;;2.08;100.00;93518.53;10491128;28;20749;-75
2021/03/17 06:52:28;;;;;;;19.40;10.35;;;;;;;1.78;100.00;93506.59;10470462;28;20052;-75
2021/03/17 06:57:28;;;;;;;26.02;13.60;;;;;;;2.02;100.00;93522.97;10449645;28;20029;-75
2021/03/17 07:02:29;;;;;;;13.98;8.75;;;;;;;2.36;100.00;93501.59;10449666;28;20049;-75
2021/03/17 07:07:29;;;;;;;19.00;10.97;;;;;;;2.14;100.00;93517.56;10449086;28;20029;-75
2021/03/17 07:12:31;;;;;;;16.53;10.30;;;;;;;2.54;100.00;93522.41;10449952;28;20044;-75
2021/03/17 07:17:31;;;;;;;20.02;10.02;;;;;;;2.58;100.00;93521.91;10447854;28;20283;-74
2021/03/17 07:22:32;;;;;;;16.17;9.57;;;;;;;2.71;100.00;93538.19;10448914;28;20043;-74
2021/03/17 07:27:33;;;;;;;18.52;9.70;;;;;;;2.89;100.00;93529.03;10490127;28;20024;-75
2021/03/17 07:32:57;;;;;;;17.42;10.65;;;;;;;2.29;100.00;93517.69;10490276;28;20039;-74
2021/03/17 07:38:12;;;;;;;16.77;8.52;;;;;;;2.42;100.00;93513.81;10490014;28;20032;-74
2021/03/17 07:43:15;;;;;;;16.08;9.70;;;;;;;2.21;100.00;93513.63;10475740;28;20087;-74
2021/03/17 07:48:16;;;;;;;15.65;8.20;;;;;;;2.53;100.00;93523.47;10446753;28;20025;-75
2021/03/17 07:53:23;;;;;;;15.68;9.23;;;;;;;2.89;100.00;93537.00;10446378;28;20523;-74
2021/03/17 07:58:24;;;;;;;16.80;8.25;;;;;;;2.51;100.00;93530.06;10447680;28;20326;-74
2021/03/17 08:03:24;;;;;;;16.70;9.10;;;;;;;3.00;100.00;93529.91;10446694;28;20834;-75
2021/03/17 08:08:25;;;;;;;16.23;9.68;;;;;;;3.06;100.00;93551.97;10451171;28;20078;-75
2021/03/17 08:13:25;;;;;;;15.85;9.00;;;;;;;2.94;100.00;93541.53;10487502;28;20039;-75
2021/03/17 08:18:32;;;;;;;12.77;7.70;;;;;;;2.73;100.00;93522.03;10487743;28;20483;-75
2021/03/17 08:23:44;;;;;;;16.00;9.00;;;;;;;2.25;100.00;93535.16;10487998;28;20025;-75
2021/03/17 08:28:46;;;;;;;16.35;9.00;;;;;;;2.37;100.00;93540.28;10487842;28;20127;-75
2021/03/17 08:33:47;;;;;;;13.50;7.90;;;;;;;2.56;100.00;93538.84;10487630;28;20032;-74
2021/03/17 08:38:55;;;;;;;14.02;7.40;;;;;;;2.99;100.00;93530.19;10485742;28;20042;-75
2021/03/17 08:44:11;;;;;;;13.35;7.50;;;;;;;3.14;100.00;93546.19;10489138;28;20071;-75
2021/03/17 08:49:13;;;;;;;13.27;7.78;;;;;;;3.11;100.00;93535.28;10463367;28;20079;-74
2021/03/17 08:54:53;;;;;;;13.70;7.90;;;;;;;2.84;100.00;93542.25;10447832;28;20045;-74
2021/03/17 09:00:00;;;;;;;11.57;7.47;;;;;;;2.49;100.00;93542.78;10479756;28;20033;-75
2021/03/17 09:05:04;;;;;;;12.30;7.72;;;;;;;2.09;100.00;93542.13;10467554;28;20045;-75
2021/03/17 09:10:04;;;;;;;12.43;7.47;;;;;;;2.04;100.00;93542.88;10445582;28;20194;-74
2021/03/17 09:15:13;;;;;;;12.07;8.30;;;;;;;2.29;100.00;93540.72;10453527;28;20029;-73
2021/03/17 09:20:24;;;;;;;10.25;7.18;;;;;;;2.00;100.00;93554.25;10486709;28;20031;-74
2021/03/17 09:25:31;;;;;;;13.82;7.68;;;;;;;1.73;100.00;93551.53;10486287;28;20499;-74
2021/03/17 09:30:36;;;;;;;12.18;8.30;;;;;;;2.02;100.00;93552.13;10486228;28;20032;-75
2021/03/17 09:35:37;;;;;;;13.45;7.85;;;;;;;1.76;100.00;93548.41;10467518;28;20404;-75
2021/03/17 09:40:44;;;;;;;15.68;8.57;;;;;;;1.71;100.00;93554.44;10476924;28;20029;-75
2021/03/17 09:45:45;;;;;;;18.92;10.68;;;;;;;1.69;100.00;93564.50;10444113;28;20433;-75
2021/03/17 09:50:46;;;;;;;16.23;9.43;;;;;;;2.31;100.00;93570.47;10443824;28;20056;-75
2021/03/17 09:55:47;;;;;;;15.35;9.10;;;;;;;2.48;100.00;93557.09;10442574;28;20295;-75
2021/03/17 10:00:48;;;;;;;14.27;8.82;;;;;;;2.60;100.00;93572.84;10457062;28;20040;-75
2021/03/17 10:05:56;;;;;;;19.52;8.93;;;;;;;1.49;100.00;93565.84;10485548;28;20442;-75
2021/03/17 10:10:57;;;;;;;19.08;9.45;;;;;;;1.43;100.00;93572.09;10484985;28;20430;-76
2021/03/17 10:15:57;;;;;;;18.25;11.45;;;;;;;1.65;100.00;93585.38;10485097;28;20124;-75
2021/03/17 10:20:58;;;;;;;24.70;12.18;;;;;;;1.83;100.00;93578.97;10484948;28;20028;-75
2021/03/17 10:25:58;;;;;;;17.27;9.13;;;;;;;1.97;100.00;93581.25;10484618;28;20021;-75
2021/03/17 10:30:59;;;;;;;17.40;9.95;;;;;;;1.98;100.00;93594.25;10472257;28;20260;-75
2021/03/17 10:35:59;;;;;;;17.87;10.10;;;;;;;1.74;100.00;93587.59;10451759;28;20021;-75
2021/03/17 10:40:59;;;;;;;18.77;11.63;;;;;;;1.79;100.00;93593.75;10449693;28;20781;-75
2021/03/17 10:46:03;;;;;;;17.27;9.80;;;;;;;2.12;100.00;93591.19;10451367;28;20031;-74
2021/03/17 10:51:05;;;;;;;19.05;10.48;;;;;;;1.70;100.00;93603.16;10490348;28;20115;-75
2021/03/17 10:56:15;;;;;;;18.80;10.15;;;;;;;1.83;100.00;93584.25;10490792;28;20036;-75
2021/03/17 11:01:22;;;;;;;20.08;10.25;;;;;;;1.57;100.00;93588.44;10474491;28;20035;-75
2021/03/17 11:06:23;;;;;;;21.58;10.60;;;;;;;1.21;100.00;93589.81;10487561;28;20028;-75
2021/03/17 11:11:23;;;;;;;19.92;10.38;;;;;;;1.47;100.00;93601.56;10447918;28;20510;-76
2021/03/17 11:16:41;;;;;;;19.13;11.20;;;;;;;1.43;100.00;93588.00;10470965;28;20658;-76
2021/03/17 11:21:42;;;;;;;18.05;10.68;;;;;;;1.66;100.00;93592.28;10491064;28;20109;-75
2021/03/17 11:26:42;;;;;;;23.47;11.40;;;;;;;2.16;100.00;93589.66;10490801;28;20140;-76
2021/03/17 11:31:44;;;;;;;22.23;12.60;;;;;;;2.39;100.00;93593.88;10489792;28;20757;-76
2021/03/17 11:36:45;;;;;;;19.58;12.00;;;;;;;2.38;100.00;93598.34;10490051;28;20035;-76
2021/03/17 11:41:47;;;;;;;20.38;13.40;;;;;;;1.78;100.00;93589.50;10489664;28;20117;-75
2021/03/17 11:46:49;;;;;;;20.23;12.13;;;;;;;1.90;100.00;93591.22;10488366;28;20364;-76
2021/03/17 11:51:49;;;;;;;17.77;10.25;;;;;;;1.70;100.00;93588.09;10487923;28;20044;-76
2021/03/17 11:56:50;;;;;;;21.15;12.88;;;;;;;1.61;100.00;93604.66;10488940;28;20029;-76
2021/03/17 12:01:50;;;;;;;22.00;12.50;;;;;;;1.30;100.00;93606.88;10488308;28;20031;-75
2021/03/17 12:06:50;;;;;;;17.00;11.23;;;;;;;1.26;100.00;93588.03;10489311;28;20066;-75
2021/03/17 12:11:51;;;;;;;18.70;11.67;;;;;;;1.31;100.00;93595.22;10489156;28;20786;-76
2021/03/17 12:16:51;;;;;;;17.10;11.40;;;;;;;0.99;100.00;93601.13;10488167;28;20464;-74
2021/03/17 12:21:51;;;;;;;20.73;13.47;;;;;;;0.95;100.00;93595.53;10486377;28;20267;-75
2021/03/17 12:26:52;;;;;;;20.00;11.63;;;;;;;0.88;100.00;93610.75;10487301;28;20020;-75
2021/03/17 12:31:52;;;;;;;23.30;13.33;;;;;;;0.99;100.00;93620.47;10460618;28;20702;-75
2021/03/17 12:36:52;;;;;;;28.17;12.40;;;;;;;0.97;100.00;93627.03;10446882;28;20600;-75
2021/03/17 12:41:54;;;;;;;21.53;12.60;;;;;;;1.20;100.00;93623.41;10446076;28;20319;-75
2021/03/17 12:46:54;;;;;;;21.83;12.95;;;;;;;1.38;100.00;93622.31;10445674;28;20028;-75
2021/03/17 12:51:55;;;;;;;21.17;12.20;;;;;;;1.57;100.00;93630.00;10445457;28;20044;-75
2021/03/17 12:56:56;;;;;;;21.13;13.20;;;;;;;1.91;100.00;93629.91;10444260;28;20111;-75
2021/03/17 13:01:56;;;;;;;19.02;12.77;;;;;;;1.68;100.00;93632.53;10444009;28;20078;-75
2021/03/17 13:06:56;;;;;;;22.80;13.40;;;;;;;1.14;100.00;93637.59;10445053;28;20021;-74
2021/03/17 13:11:57;;;;;;;26.17;12.60;;;;;;;1.23;100.00;93645.94;10443362;28;20346;-75
2021/03/17 13:16:58;;;;;;;19.50;11.90;;;;;;;1.07;100.00;93645.69;10444253;28;20345;-74
2021/03/17 13:21:58;;;;;;;21.75;13.23;;;;;;;1.11;100.00;93646.81;10443731;28;20458;-74
2021/03/17 13:26:58;;;;;;;27.15;13.38;;;;;;;1.07;100.00;93640.41;10444932;28;20104;-74
2021/03/17 13:31:59;;;;;;;20.30;12.68;;;;;;;0.97;100.00;93650.84;10444653;28;20029;-75
2021/03/17 13:36:59;;;;;;;23.73;13.23;;;;;;;0.97;100.00;93648.19;10444108;28;20025;-74
2021/03/17 13:42:00;;;;;;;22.38;12.75;;;;;;;0.93;100.00;93660.28;10444275;28;20264;-74
2021/03/17 13:47:00;;;;;;;20.92;12.77;;;;;;;0.80;100.00;93654.25;10444289;28;20036;-74
2021/03/17 13:52:01;;;;;;;19.77;10.60;;;;;;;0.64;100.00;93658.50;10443828;28;20048;-74
2021/03/17 13:57:02;;;;;;;17.20;10.18;;;;;;;0.81;100.00;93663.00;10441941;28;20395;-74
2021/03/17 14:02:02;;;;;;;22.35;11.70;;;;;;;0.74;100.00;93663.16;10443936;28;20028;-74
2021/03/17 14:07:02;;;;;;;22.33;12.18;;;;;;;0.76;100.00;93666.34;10446438;28;20021;-75
2021/03/17 14:12:03;;;;;;;23.07;11.90;;;;;;;0.74;100.00;93667.63;10451932;28;20499;-75
2021/03/17 14:17:03;;;;;;;20.75;11.45;;;;;;;0.65;100.00;93675.16;10451512;28;20294;-75
2021/03/17 14:22:04;;;;;;;22.43;11.30;;;;;;;0.91;100.00;93680.88;10451832;28;20211;-74
2021/03/17 14:27:04;;;;;;;23.40;12.30;;;;;;;0.94;100.00;93677.78;10450759;28;20679;-74
2021/03/17 14:32:05;;;;;;;19.40;11.18;;;;;;;1.06;100.00;93685.63;10454101;28;20458;-75
2021/03/17 14:37:05;;;;;;;19.85;11.50;;;;;;;1.02;100.00;93680.81;10485911;28;20036;-74
2021/03/17 14:42:06;;;;;;;18.10;11.15;;;;;;;1.03;100.00;93684.25;10449251;28;20032;-75
2021/03/17 14:47:08;;;;;;;19.15;11.75;;;;;;;0.67;100.00;93692.38;10449148;28;20104;-75
2021/03/17 14:52:08;;;;;;;26.80;14.40;;;;;;;0.53;100.00;93700.84;10448895;28;20045;-74
2021/03/17 14:57:09;;;;;;;26.10;13.33;;;;;;;0.40;100.00;93699.28;10448463;28;20379;-74
2021/03/17 15:02:10;;;;;;;22.80;13.35;;;;;;;0.30;100.00;93708.63;10449771;28;20287;-75
2021/03/17 15:07:10;;;;;;;21.45;13.10;;;;;;;0.19;100.00;93714.72;10449583;28;20112;-74
2021/03/17 15:12:13;;;;;;;22.77;13.10;;;;;;;0.09;100.00;93712.69;10477413;28;20027;-74
2021/03/17 15:17:13;;;;;;;21.75;13.05;;;;;;;0.07;100.00;93730.63;10489157;28;20426;-75
2021/03/17 15:22:14;;;;;;;21.57;12.33;;;;;;;-0.02;100.00;93722.22;10490119;28;20081;-75
2021/03/17 15:27:14;;;;;;;18.70;10.80;;;;;;;-0.02;100.00;93734.66;10490155;28;20270;-75
2021/03/17 15:32:15;;;;;;;23.52;12.07;;;;;;;-0.02;100.00;93737.28;10490735;28;20028;-75
2021/03/17 15:37:19;;;;;;;22.05;12.77;;;;;;;0.11;100.00;93742.34;10489930;28;20067;-76
2021/03/17 15:42:19;;;;;;;21.55;12.27;;;;;;;0.07;100.00;93743.84;10492543;28;20028;-75
2021/03/17 15:47:20;;;;;;;21.23;13.30;;;;;;;0.05;100.00;93745.09;10489703;28;20020;-75
2021/03/17 15:52:20;;;;;;;19.40;11.50;;;;;;;0.00;100.00;93756.38;10487737;28;20309;-75
2021/03/17 15:57:21;;;;;;;18.90;12.40;;;;;;;0.02;100.00;93754.28;10447704;28;20289;-76
2021/03/17 16:02:21;;;;;;;23.67;14.23;;;;;;;-0.01;100.00;93760.81;10447619;28;20365;-75
2021/03/17 16:07:22;;;;;;;21.45;12.98;;;;;;;-0.11;100.00;93763.25;10447846;28;20024;-75
2021/03/17 16:12:22;;;;;;;22.97;13.07;;;;;;;-0.10;100.00;93769.34;10447197;28;20113;-75
2021/03/17 16:17:22;;;;;;;20.50;11.07;;;;;;;-0.19;100.00;93772.31;10477646;28;20173;-75
2021/03/17 16:22:23;;;;;;;24.87;13.77;;;;;;;-0.20;100.00;93781.25;10488352;28;20025;-75
2021/03/17 16:27:23;;;;;;;24.10;13.95;;;;;;;-0.19;100.00;93790.81;10486440;28;20023;-76
2021/03/17 16:32:24;;;;;;;23.23;12.55;;;;;;;-0.18;100.00;93802.97;10486534;28;20021;-76
2021/03/17 16:37:24;;;;;;;23.40;13.93;;;;;;;-0.21;100.00;93799.97;10488192;28;20111;-77
2021/03/17 16:42:24;;;;;;;26.10;13.30;;;;;;;-0.26;100.00;93795.41;10448480;28;20028;-77
2021/03/17 16:47:25;;;;;;;26.77;15.48;;;;;;;-0.19;100.00;93811.13;10445103;28;20547;-77
2021/03/17 16:52:25;;;;;;;22.30;13.55;;;;;;;-0.18;100.00;93813.53;10445621;28;20051;-76
2021/03/17 16:57:26;;;;;;;23.50;14.13;;;;;;;-0.28;100.00;93823.88;10485394;28;20489;-76
2021/03/17 17:02:26;;;;;;;25.67;15.07;;;;;;;-0.38;100.00;93829.72;10464333;28;20685;-76
2021/03/17 17:07:26;;;;;;;23.80;13.50;;;;;;;-0.43;100.00;93840.16;10447267;28;20035;-77
2021/03/17 17:12:27;;;;;;;26.83;15.10;;;;;;;-0.48;100.00;93836.56;10446760;28;20058;-77
2021/03/17 17:17:27;;;;;;;22.43;12.57;;;;;;;-0.47;100.00;93841.63;10446501;28;21279;-76
2021/03/17 17:22:28;;;;;;;27.88;14.65;;;;;;;-0.32;100.00;93843.84;10446223;28;20358;-76
2021/03/17 17:27:28;;;;;;;23.23;13.13;;;;;;;-0.34;100.00;93851.16;10446357;28;20023;-75
2021/03/17 17:32:28;;;;;;;22.05;12.65;;;;;;;-0.42;100.00;93854.97;10446927;28;20271;-75
2021/03/17 17:37:29;;;;;;;24.70;14.87;;;;;;;-0.43;100.00;93858.63;10445552;28;20033;-76
2021/03/17 17:42:29;;;;;;;27.70;14.57;;;;;;;-0.41;100.00;93859.19;10443873;28;20350;-75
2021/03/17 17:47:29;;;;;;;27.53;13.97;;;;;;;-0.33;100.00;93866.00;10445142;28;20036;-75
2021/03/17 17:52:30;;;;;;;26.00;14.87;;;;;;;-0.36;100.00;93875.16;10444874;28;20052;-75
2021/03/17 17:57:30;;;;;;;27.77;14.30;;;;;;;-0.28;100.00;93875.84;10444936;28;20037;-76
2021/03/17 18:02:30;;;;;;;24.63;13.80;;;;;;;-0.38;100.00;93879.88;10445409;28;20836;-75
2021/03/17 18:07:31;;;;;;;18.97;11.40;;;;;;;-0.36;100.00;93888.34;10444615;28;20119;-74
2021/03/17 18:12:32;;;;;;;22.00;12.98;;;;;;;-0.30;100.00;93889.28;10444877;28;20040;-75
2021/03/17 18:17:32;;;;;;;31.83;14.50;;;;;;;-0.30;100.00;93897.22;10447500;28;20025;-76
2021/03/17 18:22:34;;;;;;;20.30;12.45;;;;;;;-0.33;100.00;93887.09;10447384;28;20777;-76
2021/03/17 18:27:34;;;;;;;19.05;12.68;;;;;;;-0.39;100.00;93895.91;10445446;28;20399;-75
2021/03/17 18:32:37;;;;;;;20.90;12.37;;;;;;;-0.46;100.00;93889.94;10444607;28;20032;-76
2021/03/17 18:37:38;;;;;;;26.58;13.13;;;;;;;-0.34;100.00;93903.97;10441025;28;20059;-75
2021/03/17 18:42:39;;;;;;;23.45;14.07;;;;;;;-0.31;100.00;93902.72;10443332;28;20498;-76
2021/03/17 18:47:40;;;;;;;23.77;13.18;;;;;;;-0.27;100.00;93907.31;10452417;28;20021;-76
2021/03/17 18:52:41;;;;;;;16.63;9.98;;;;;;;-0.02;100.00;93916.91;10487607;28;20052;-77
2021/03/17 18:57:44;;;;;;;22.77;11.63;;;;;;;-0.16;100.00;93918.16;10494508;28;20041;-76
2021/03/17 19:02:44;;;;;;;19.23;12.02;;;;;;;-0.05;100.00;93918.16;10453532;28;20090;-77
2021/03/17 19:07:46;;;;;;;23.53;12.20;;;;;;;-0.23;100.00;93924.31;10481231;28;20032;-77
2021/03/17 19:12:48;;;;;;;23.02;13.77;;;;;;;-0.30;100.00;93920.97;10494539;28;20282;-76
2021/03/17 19:17:52;;;;;;;23.40;11.68;;;;;;;-0.27;100.00;93928.44;10493048;28;20927;-76
2021/03/17 19:22:53;;;;;;;21.65;12.10;;;;;;;-0.25;100.00;93929.03;10492243;28;20458;-76
2021/03/17 19:27:55;;;;;;;22.38;12.75;;;;;;;-0.20;100.00;93931.78;10494060;28;20028;-76
2021/03/17 19:32:55;;;;;;;24.55;12.50;;;;;;;-0.11;100.00;93939.38;10492213;28;20037;-76
2021/03/17 19:37:55;;;;;;;21.95;12.45;;;;;;;0.04;100.00;93934.47;10486433;28;20029;-76
2021/03/17 19:42:56;;;;;;;23.33;12.75;;;;;;;0.09;100.00;93934.59;10469615;28;20032;-76
2021/03/17 19:47:57;;;;;;;23.02;11.52;;;;;;;0.05;100.00;93938.72;10493128;28;20024;-76
2021/03/17 19:52:58;;;;;;;26.13;14.05;;;;;;;0.10;100.00;93933.56;10492213;28;20427;-76
2021/03/17 19:57:58;;;;;;;21.65;10.30;;;;;;;0.15;100.00;93928.44;10493570;28;20032;-76
2021/03/17 20:02:58;;;;;;;21.60;10.10;;;;;;;0.16;100.00;93934.50;10492025;28;20032;-77
2021/03/17 20:07:59;;;;;;;22.03;11.40;;;;;;;0.37;100.00;93951.63;10491521;28;20274;-76
2021/03/17 20:12:59;;;;;;;20.70;11.15;;;;;;;0.30;100.00;93945.66;10493246;28;20292;-76
2021/03/17 20:18:00;;;;;;;21.25;11.82;;;;;;;0.24;100.00;93942.09;10491802;28;20064;-72
2021/03/17 20:23:02;;;;;;;16.75;11.57;;;;;;;0.05;100.00;93949.28;10487773;28;20081;-74
2021/03/17 20:28:03;;;;;;;18.70;10.68;;;;;;;0.05;100.00;93961.72;10468159;28;20025;-75
2021/03/17 20:33:11;;;;;;;24.73;12.10;;;;;;;0.04;100.00;93962.75;10448063;28;20053;-75
2021/03/17 20:38:12;;;;;;;21.30;12.47;;;;;;;0.06;100.00;93963.34;10447865;28;20040;-75
2021/03/17 20:43:13;;;;;;;22.55;12.10;;;;;;;0.10;100.00;93973.22;10466504;28;20766;-75
2021/03/17 20:48:13;;;;;;;21.92;13.20;;;;;;;0.26;100.00;93970.94;10488480;28;20032;-74
2021/03/17 20:53:14;;;;;;;24.17;11.68;;;;;;;0.20;100.00;93982.44;10486973;28;20044;-75
2021/03/17 20:58:16;;;;;;;26.88;13.50;;;;;;;0.05;100.00;93981.00;10488952;28;20037;-75
2021/03/17 21:03:16;;;;;;;23.98;13.27;;;;;;;0.04;100.00;93987.31;10452198;28;20037;-75
2021/03/17 21:08:17;;;;;;;21.83;12.85;;;;;;;-0.07;100.00;93996.00;10446606;28;20408;-75
2021/03/17 21:13:17;;;;;;;24.40;13.68;;;;;;;-0.15;100.00;93999.78;10447277;28;20039;-76
2021/03/17 21:18:19;;;;;;;26.37;14.13;;;;;;;-0.14;100.00;93998.75;10465048;28;20418;-76
2021/03/17 21:23:20;;;;;;;27.52;13.93;;;;;;;-0.26;100.00;94003.19;10487699;28;20310;-75
2021/03/17 21:28:21;;;;;;;29.00;15.02;;;;;;;-0.30;100.00;94005.47;10488794;28;20475;-75
2021/03/17 21:33:21;;;;;;;30.65;16.25;;;;;;;-0.30;100.00;94009.94;10487269;28;20035;-75
2021/03/17 21:38:22;;;;;;;29.70;15.07;;;;;;;-0.38;100.00;94011.03;10487702;28;20033;-75
2021/03/17 21:43:23;;;;;;;32.70;15.85;;;;;;;-0.30;100.00;94015.22;10487917;28;20036;-75
2021/03/17 21:48:25;;;;;;;26.30;14.80;;;;;;;-0.37;100.00;94020.59;10487096;28;20032;-75
2021/03/17 21:53:25;;;;;;;30.65;15.48;;;;;;;-0.42;100.00;94010.69;10486800;28;20053;-75
2021/03/17 21:58:26;;;;;;;32.53;15.85;;;;;;;-0.43;100.00;94005.63;10486411;28;20029;-75
2021/03/17 22:03:27;;;;;;;35.42;18.45;;;;;;;-0.30;100.00;94017.88;10486664;28;20037;-75
2021/03/17 22:08:27;;;;;;;30.40;15.88;;;;;;;-0.36;100.00;94022.22;10486606;28;20073;-75
2021/03/17 22:13:28;;;;;;;29.43;15.87;;;;;;;-0.31;100.00;94010.97;10486774;28;20036;-75
2021/03/17 22:18:33;;;;;;;31.17;15.90;;;;;;;-0.21;100.00;94019.97;10486720;28;20294;-75
2021/03/17 22:23:33;;;;;;;37.33;17.17;;;;;;;-0.20;100.00;94010.22;10486657;28;20028;-75
2021/03/17 22:28:34;;;;;;;37.70;16.70;;;;;;;-0.08;100.00;94016.34;10488755;28;20031;-75
2021/03/17 22:33:35;;;;;;;30.20;17.00;;;;;;;-0.04;100.00;94016.72;10494727;28;20033;-75
2021/03/17 22:38:35;;;;;;;30.38;15.48;;;;;;;-0.06;100.00;94021.41;10483604;28;20041;-75
2021/03/17 22:43:37;;;;;;;34.70;19.50;;;;;;;-0.06;100.00;94022.19;10474924;28;20376;-75
2021/03/17 22:48:37;;;;;;;37.72;16.00;;;;;;;-0.16;100.00;94029.84;10492478;28;20025;-75
2021/03/17 22:53:38;;;;;;;37.50;18.20;;;;;;;-0.03;100.00;94031.50;10493812;28;20499;-75